sensor_id;sensor_type;location;lat;lon;timestamp;temperature;humidity
28969;DHT22;16076;51.194;6.642;2022-07-31T00:01:51;21.60;99.90
28969;DHT22;16076;51.194;6.642;2022-07-31T00:04:20;21.60;99.90
28969;DHT22;16076;51.194;6.642;2022-07-31T00:06:48;21.50;99.90
28969;DHT22;16076;51.194;6.642;2022-07-31T00:09:16;21.50;99.90
28969;DHT22;16076;51.194;6.642;2022-07-31T00:11:42;21.50;99.90
28969;DHT22;16076;51.194;6.642;2022-07-31T00:14:08;21.40;99.90
28969;DHT22;16076;51.194;6.642;2022-07-31T00:16:34;21.30;99.90
28969;DHT22;16076;51.194;6.642;2022-07-31T00:19:00;21.30;99.90
28969;DHT22;16076;51.194;6.642;2022-07-31T00:21:26;21.20;99.90
28969;DHT22;16076;51.194;6.642;2022-07-31T00:23:52;21.20;99.90
28969;DHT22;16076;51.194;6.642;2022-07-31T00:26:20;21.10;99.90
28969;DHT22;16076;51.194;6.642;2022-07-31T00:28:46;21.10;99.90
28969;DHT22;16076;51.194;6.642;2022-07-31T00:31:12;21.00;99.90
28969;DHT22;16076;51.194;6.642;2022-07-31T00:33:38;21.00;99.90
28969;DHT22;16076;51.194;6.642;2022-07-31T00:36:04;21.00;99.90
28969;DHT22;16076;51.194;6.642;2022-07-31T00:38:30;21.00;99.90
28969;DHT22;16076;51.194;6.642;2022-07-31T00:40:56;21.00;99.90
28969;DHT22;16076;51.194;6.642;2022-07-31T00:43:21;21.00;99.90
28969;DHT22;16076;51.194;6.642;2022-07-31T00:45:47;20.90;99.90
28969;DHT22;16076;51.194;6.642;2022-07-31T00:48:14;20.90;99.90
28969;DHT22;16076;51.194;6.642;2022-07-31T00:50:40;20.80;99.90
28969;DHT22;16076;51.194;6.642;2022-07-31T00:53:06;20.70;99.90
28969;DHT22;16076;51.194;6.642;2022-07-31T00:55:34;20.70;99.90
28969;DHT22;16076;51.194;6.642;2022-07-31T00:57:59;20.70;99.90
28969;DHT22;16076;51.194;6.642;2022-07-31T01:00:25;20.60;99.90
28969;DHT22;16076;51.194;6.642;2022-07-31T01:02:51;20.60;99.90
28969;DHT22;16076;51.194;6.642;2022-07-31T01:05:17;20.60;99.90
28969;DHT22;16076;51.194;6.642;2022-07-31T01:07:44;20.60;99.90
28969;DHT22;16076;51.194;6.642;2022-07-31T01:10:13;20.50;99.90
28969;DHT22;16076;51.194;6.642;2022-07-31T01:12:54;20.40;99.90
28969;DHT22;16076;51.194;6.642;2022-07-31T01:15:21;20.30;99.90
28969;DHT22;16076;51.194;6.642;2022-07-31T01:17:49;20.30;99.90
28969;DHT22;16076;51.194;6.642;2022-07-31T01:20:18;20.30;99.90
28969;DHT22;16076;51.194;6.642;2022-07-31T01:25:57;20.30;99.90
28969;DHT22;16076;51.194;6.642;2022-07-31T01:31:12;20.40;99.90
28969;DHT22;16076;51.194;6.642;2022-07-31T01:33:43;20.40;99.90
28969;DHT22;16076;51.194;6.642;2022-07-31T01:36:16;20.50;99.90
28969;DHT22;16076;51.194;6.642;2022-07-31T01:38:46;20.50;99.90
28969;DHT22;16076;51.194;6.642;2022-07-31T01:41:13;20.60;99.90
28969;DHT22;16076;51.194;6.642;2022-07-31T01:43:45;20.60;99.90
28969;DHT22;16076;51.194;6.642;2022-07-31T01:46:13;20.60;99.90
28969;DHT22;16076;51.194;6.642;2022-07-31T01:48:43;20.60;99.90
28969;DHT22;16076;51.194;6.642;2022-07-31T01:51:10;20.60;99.90
28969;DHT22;16076;51.194;6.642;2022-07-31T01:53:38;20.60;99.90
28969;DHT22;16076;51.194;6.642;2022-07-31T01:56:06;20.60;99.90
28969;DHT22;16076;51.194;6.642;2022-07-31T01:58:35;20.60;99.90
28969;DHT22;16076;51.194;6.642;2022-07-31T02:01:03;20.60;99.90
28969;DHT22;16076;51.194;6.642;2022-07-31T02:03:34;20.50;99.90
28969;DHT22;16076;51.194;6.642;2022-07-31T02:06:01;20.50;99.90
28969;DHT22;16076;51.194;6.642;2022-07-31T02:08:31;20.40;99.90
28969;DHT22;16076;51.194;6.642;2022-07-31T02:10:58;20.30;99.90
28969;DHT22;16076;51.194;6.642;2022-07-31T02:13:26;20.30;99.90
28969;DHT22;16076;51.194;6.642;2022-07-31T02:15:55;20.30;99.90
28969;DHT22;16076;51.194;6.642;2022-07-31T02:18:22;20.30;99.90
28969;DHT22;16076;51.194;6.642;2022-07-31T02:20:49;20.30;99.90
28969;DHT22;16076;51.194;6.642;2022-07-31T02:23:17;20.30;99.90
28969;DHT22;16076;51.194;6.642;2022-07-31T02:25:44;20.40;99.90
28969;DHT22;16076;51.194;6.642;2022-07-31T02:28:14;20.40;99.90
28969;DHT22;16076;51.194;6.642;2022-07-31T02:30:43;20.40;99.90
28969;DHT22;16076;51.194;6.642;2022-07-31T02:33:18;20.40;99.90
28969;DHT22;16076;51.194;6.642;2022-07-31T02:35:50;20.50;99.90
28969;DHT22;16076;51.194;6.642;2022-07-31T02:38:22;20.50;99.90
28969;DHT22;16076;51.194;6.642;2022-07-31T02:40:52;20.50;99.90
28969;DHT22;16076;51.194;6.642;2022-07-31T02:43:19;20.50;99.90
28969;DHT22;16076;51.194;6.642;2022-07-31T02:45:45;20.50;99.90
28969;DHT22;16076;51.194;6.642;2022-07-31T02:48:11;20.40;99.90
28969;DHT22;16076;51.194;6.642;2022-07-31T02:50:37;20.40;99.90
28969;DHT22;16076;51.194;6.642;2022-07-31T02:53:04;20.40;99.90
28969;DHT22;16076;51.194;6.642;2022-07-31T02:55:30;20.40;99.90
28969;DHT22;16076;51.194;6.642;2022-07-31T02:57:57;20.40;99.90
28969;DHT22;16076;51.194;6.642;2022-07-31T03:00:23;20.40;99.90
28969;DHT22;16076;51.194;6.642;2022-07-31T03:02:55;20.40;99.90
28969;DHT22;16076;51.194;6.642;2022-07-31T03:05:21;20.50;99.90
28969;DHT22;16076;51.194;6.642;2022-07-31T03:07:47;20.50;99.90
28969;DHT22;16076;51.194;6.642;2022-07-31T03:10:15;20.50;99.90
28969;DHT22;16076;51.194;6.642;2022-07-31T03:12:43;20.50;99.90
28969;DHT22;16076;51.194;6.642;2022-07-31T03:15:15;20.60;99.90
28969;DHT22;16076;51.194;6.642;2022-07-31T03:17:42;20.60;99.90
28969;DHT22;16076;51.194;6.642;2022-07-31T03:20:13;20.60;99.90
28969;DHT22;16076;51.194;6.642;2022-07-31T03:22:39;20.60;99.90
28969;DHT22;16076;51.194;6.642;2022-07-31T03:25:06;20.70;99.90
28969;DHT22;16076;51.194;6.642;2022-07-31T03:27:32;20.70;99.90
28969;DHT22;16076;51.194;6.642;2022-07-31T03:29:58;20.70;99.90
28969;DHT22;16076;51.194;6.642;2022-07-31T03:32:24;20.70;99.90
28969;DHT22;16076;51.194;6.642;2022-07-31T03:34:50;20.70;99.90
28969;DHT22;16076;51.194;6.642;2022-07-31T03:37:16;20.70;99.90
28969;DHT22;16076;51.194;6.642;2022-07-31T03:39:41;20.70;99.90
28969;DHT22;16076;51.194;6.642;2022-07-31T03:42:11;20.70;99.90
28969;DHT22;16076;51.194;6.642;2022-07-31T03:44:38;20.70;99.90
28969;DHT22;16076;51.194;6.642;2022-07-31T03:47:05;20.70;99.90
28969;DHT22;16076;51.194;6.642;2022-07-31T03:49:31;20.70;99.90
28969;DHT22;16076;51.194;6.642;2022-07-31T03:51:58;20.60;99.90
28969;DHT22;16076;51.194;6.642;2022-07-31T03:54:26;20.70;99.90
28969;DHT22;16076;51.194;6.642;2022-07-31T03:56:54;20.70;99.90
28969;DHT22;16076;51.194;6.642;2022-07-31T03:59:25;20.70;99.90
28969;DHT22;16076;51.194;6.642;2022-07-31T04:01:51;20.70;99.90
28969;DHT22;16076;51.194;6.642;2022-07-31T04:04:17;20.70;99.90
28969;DHT22;16076;51.194;6.642;2022-07-31T04:06:43;20.70;99.90
28969;DHT22;16076;51.194;6.642;2022-07-31T04:09:09;20.70;99.90
28969;DHT22;16076;51.194;6.642;2022-07-31T04:11:34;20.80;99.90
28969;DHT22;16076;51.194;6.642;2022-07-31T04:14:00;20.80;99.90
28969;DHT22;16076;51.194;6.642;2022-07-31T04:16:26;20.80;99.90
28969;DHT22;16076;51.194;6.642;2022-07-31T04:18:52;20.80;99.90
28969;DHT22;16076;51.194;6.642;2022-07-31T04:21:17;20.90;99.90
28969;DHT22;16076;51.194;6.642;2022-07-31T04:23:46;20.90;99.90
28969;DHT22;16076;51.194;6.642;2022-07-31T04:26:11;20.90;99.90
28969;DHT22;16076;51.194;6.642;2022-07-31T04:28:37;21.00;99.90
28969;DHT22;16076;51.194;6.642;2022-07-31T04:31:03;21.00;99.90
28969;DHT22;16076;51.194;6.642;2022-07-31T04:33:29;21.10;99.90
28969;DHT22;16076;51.194;6.642;2022-07-31T04:35:54;21.10;99.90
28969;DHT22;16076;51.194;6.642;2022-07-31T04:38:20;21.10;99.90
28969;DHT22;16076;51.194;6.642;2022-07-31T04:40:47;21.20;99.90
28969;DHT22;16076;51.194;6.642;2022-07-31T04:43:13;21.20;99.90
28969;DHT22;16076;51.194;6.642;2022-07-31T04:45:41;21.30;99.90
28969;DHT22;16076;51.194;6.642;2022-07-31T04:48:07;21.40;99.90
28969;DHT22;16076;51.194;6.642;2022-07-31T04:50:35;21.50;99.90
28969;DHT22;16076;51.194;6.642;2022-07-31T04:53:01;21.50;99.90
28969;DHT22;16076;51.194;6.642;2022-07-31T04:55:27;21.60;99.90
28969;DHT22;16076;51.194;6.642;2022-07-31T04:57:53;21.60;99.90
28969;DHT22;16076;51.194;6.642;2022-07-31T05:00:21;21.60;99.90
28969;DHT22;16076;51.194;6.642;2022-07-31T05:02:47;21.70;99.90
28969;DHT22;16076;51.194;6.642;2022-07-31T05:05:13;21.70;99.90
28969;DHT22;16076;51.194;6.642;2022-07-31T05:07:38;21.80;99.90
28969;DHT22;16076;51.194;6.642;2022-07-31T05:10:04;21.80;99.90
28969;DHT22;16076;51.194;6.642;2022-07-31T05:12:30;21.90;99.90
28969;DHT22;16076;51.194;6.642;2022-07-31T05:14:56;21.90;99.90
28969;DHT22;16076;51.194;6.642;2022-07-31T05:17:22;21.90;99.90
28969;DHT22;16076;51.194;6.642;2022-07-31T05:19:48;22.00;99.90
28969;DHT22;16076;51.194;6.642;2022-07-31T05:22:16;22.00;99.90
28969;DHT22;16076;51.194;6.642;2022-07-31T05:24:42;21.90;99.90
28969;DHT22;16076;51.194;6.642;2022-07-31T05:27:08;21.90;99.90
28969;DHT22;16076;51.194;6.642;2022-07-31T05:29:34;21.90;99.90
28969;DHT22;16076;51.194;6.642;2022-07-31T05:32:00;21.90;99.90
28969;DHT22;16076;51.194;6.642;2022-07-31T05:34:30;21.90;99.90
28969;DHT22;16076;51.194;6.642;2022-07-31T05:36:56;21.90;99.90
28969;DHT22;16076;51.194;6.642;2022-07-31T05:39:22;22.00;99.90
28969;DHT22;16076;51.194;6.642;2022-07-31T05:41:49;22.10;99.90
28969;DHT22;16076;51.194;6.642;2022-07-31T05:44:19;22.20;99.90
28969;DHT22;16076;51.194;6.642;2022-07-31T05:46:45;22.20;99.90
28969;DHT22;16076;51.194;6.642;2022-07-31T05:49:10;22.30;99.90
28969;DHT22;16076;51.194;6.642;2022-07-31T05:51:36;22.40;99.90
28969;DHT22;16076;51.194;6.642;2022-07-31T05:54:02;22.40;99.90
28969;DHT22;16076;51.194;6.642;2022-07-31T05:56:28;22.40;99.90
28969;DHT22;16076;51.194;6.642;2022-07-31T05:58:54;22.40;99.90
28969;DHT22;16076;51.194;6.642;2022-07-31T06:01:19;22.40;99.90
28969;DHT22;16076;51.194;6.642;2022-07-31T06:03:45;22.40;99.90
28969;DHT22;16076;51.194;6.642;2022-07-31T06:06:11;22.50;99.90
28969;DHT22;16076;51.194;6.642;2022-07-31T06:08:39;22.50;99.90
28969;DHT22;16076;51.194;6.642;2022-07-31T06:11:04;22.60;99.90
28969;DHT22;16076;51.194;6.642;2022-07-31T06:13:30;22.60;99.90
28969;DHT22;16076;51.194;6.642;2022-07-31T06:15:56;22.70;99.90
28969;DHT22;16076;51.194;6.642;2022-07-31T06:18:22;22.90;99.90
28969;DHT22;16076;51.194;6.642;2022-07-31T06:20:48;22.90;99.90
28969;DHT22;16076;51.194;6.642;2022-07-31T06:23:14;23.00;99.90
28969;DHT22;16076;51.194;6.642;2022-07-31T06:25:39;23.00;99.90
28969;DHT22;16076;51.194;6.642;2022-07-31T06:28:05;23.10;99.90
28969;DHT22;16076;51.194;6.642;2022-07-31T06:30:31;23.20;99.90
28969;DHT22;16076;51.194;6.642;2022-07-31T06:32:59;23.20;99.90
28969;DHT22;16076;51.194;6.642;2022-07-31T06:35:25;23.30;99.90
28969;DHT22;16076;51.194;6.642;2022-07-31T06:37:51;23.30;99.90
28969;DHT22;16076;51.194;6.642;2022-07-31T06:40:16;23.30;99.90
28969;DHT22;16076;51.194;6.642;2022-07-31T06:42:45;23.30;99.90
28969;DHT22;16076;51.194;6.642;2022-07-31T06:45:12;23.30;99.90
28969;DHT22;16076;51.194;6.642;2022-07-31T06:47:38;23.30;99.90
28969;DHT22;16076;51.194;6.642;2022-07-31T06:50:04;23.30;99.90
28969;DHT22;16076;51.194;6.642;2022-07-31T06:52:30;23.40;99.90
28969;DHT22;16076;51.194;6.642;2022-07-31T06:54:56;23.40;99.90
28969;DHT22;16076;51.194;6.642;2022-07-31T06:57:22;23.40;99.90
28969;DHT22;16076;51.194;6.642;2022-07-31T06:59:50;23.30;99.90
28969;DHT22;16076;51.194;6.642;2022-07-31T07:02:16;23.30;99.90
28969;DHT22;16076;51.194;6.642;2022-07-31T07:04:41;23.20;99.90
28969;DHT22;16076;51.194;6.642;2022-07-31T07:07:09;23.00;99.90
28969;DHT22;16076;51.194;6.642;2022-07-31T07:09:35;23.00;99.90
28969;DHT22;16076;51.194;6.642;2022-07-31T07:12:01;23.00;99.90
28969;DHT22;16076;51.194;6.642;2022-07-31T07:14:26;23.10;99.90
28969;DHT22;16076;51.194;6.642;2022-07-31T07:16:52;23.30;99.90
28969;DHT22;16076;51.194;6.642;2022-07-31T07:19:18;23.30;99.90
28969;DHT22;16076;51.194;6.642;2022-07-31T07:21:44;23.30;99.90
28969;DHT22;16076;51.194;6.642;2022-07-31T07:24:10;23.40;99.90
28969;DHT22;16076;51.194;6.642;2022-07-31T07:26:36;23.40;99.90
28969;DHT22;16076;51.194;6.642;2022-07-31T07:29:04;23.40;99.90
28969;DHT22;16076;51.194;6.642;2022-07-31T07:31:30;23.40;99.90
28969;DHT22;16076;51.194;6.642;2022-07-31T07:33:58;23.50;99.90
28969;DHT22;16076;51.194;6.642;2022-07-31T07:36:25;23.40;99.90
28969;DHT22;16076;51.194;6.642;2022-07-31T07:38:53;23.30;99.90
28969;DHT22;16076;51.194;6.642;2022-07-31T07:41:19;23.30;99.90
28969;DHT22;16076;51.194;6.642;2022-07-31T07:43:44;23.40;99.90
28969;DHT22;16076;51.194;6.642;2022-07-31T07:46:10;23.50;99.90
28969;DHT22;16076;51.194;6.642;2022-07-31T07:48:36;23.50;99.90
28969;DHT22;16076;51.194;6.642;2022-07-31T07:51:04;23.40;99.90
28969;DHT22;16076;51.194;6.642;2022-07-31T07:53:32;23.40;99.90
28969;DHT22;16076;51.194;6.642;2022-07-31T07:55:58;23.60;99.90
28969;DHT22;16076;51.194;6.642;2022-07-31T07:58:25;23.90;99.90
28969;DHT22;16076;51.194;6.642;2022-07-31T08:00:51;24.30;99.90
28969;DHT22;16076;51.194;6.642;2022-07-31T08:03:19;24.80;99.90
28969;DHT22;16076;51.194;6.642;2022-07-31T08:05:45;25.00;99.90
28969;DHT22;16076;51.194;6.642;2022-07-31T08:08:11;25.10;99.90
28969;DHT22;16076;51.194;6.642;2022-07-31T08:10:36;25.10;99.90
28969;DHT22;16076;51.194;6.642;2022-07-31T08:13:04;25.00;99.90
28969;DHT22;16076;51.194;6.642;2022-07-31T08:15:30;25.20;99.90
28969;DHT22;16076;51.194;6.642;2022-07-31T08:17:59;25.30;99.90
28969;DHT22;16076;51.194;6.642;2022-07-31T08:20:27;25.40;99.90
28969;DHT22;16076;51.194;6.642;2022-07-31T08:22:53;25.50;99.90
28969;DHT22;16076;51.194;6.642;2022-07-31T08:25:19;25.40;99.90
28969;DHT22;16076;51.194;6.642;2022-07-31T08:27:44;25.40;99.90
28969;DHT22;16076;51.194;6.642;2022-07-31T08:30:12;25.40;99.90
28969;DHT22;16076;51.194;6.642;2022-07-31T08:32:38;25.40;99.90
28969;DHT22;16076;51.194;6.642;2022-07-31T08:35:04;25.60;99.90
28969;DHT22;16076;51.194;6.642;2022-07-31T08:37:29;25.80;99.90
28969;DHT22;16076;51.194;6.642;2022-07-31T08:39:55;25.80;99.90
28969;DHT22;16076;51.194;6.642;2022-07-31T08:42:22;25.90;99.90
28969;DHT22;16076;51.194;6.642;2022-07-31T08:44:48;25.90;99.90
28969;DHT22;16076;51.194;6.642;2022-07-31T08:47:15;25.90;99.90
28969;DHT22;16076;51.194;6.642;2022-07-31T08:49:46;25.90;99.90
28969;DHT22;16076;51.194;6.642;2022-07-31T08:52:20;25.90;99.90
28969;DHT22;16076;51.194;6.642;2022-07-31T08:54:49;26.10;99.90
28969;DHT22;16076;51.194;6.642;2022-07-31T08:57:15;26.20;99.90
28969;DHT22;16076;51.194;6.642;2022-07-31T08:59:42;26.10;99.90
28969;DHT22;16076;51.194;6.642;2022-07-31T09:02:11;26.10;99.90
28969;DHT22;16076;51.194;6.642;2022-07-31T09:04:38;26.00;99.90
28969;DHT22;16076;51.194;6.642;2022-07-31T09:07:04;26.20;99.90
28969;DHT22;16076;51.194;6.642;2022-07-31T09:09:30;26.50;99.90
28969;DHT22;16076;51.194;6.642;2022-07-31T09:11:59;26.80;99.90
28969;DHT22;16076;51.194;6.642;2022-07-31T09:14:29;27.20;99.90
28969;DHT22;16076;51.194;6.642;2022-07-31T09:16:56;27.60;98.70
28969;DHT22;16076;51.194;6.642;2022-07-31T09:19:34;27.80;97.90
28969;DHT22;16076;51.194;6.642;2022-07-31T09:22:02;27.70;97.90
28969;DHT22;16076;51.194;6.642;2022-07-31T09:24:30;27.70;97.70
28969;DHT22;16076;51.194;6.642;2022-07-31T09:27:05;27.90;97.80
28969;DHT22;16076;51.194;6.642;2022-07-31T09:29:43;28.10;97.20
28969;DHT22;16076;51.194;6.642;2022-07-31T09:32:14;28.30;96.70
28969;DHT22;16076;51.194;6.642;2022-07-31T09:34:41;28.30;96.70
28969;DHT22;16076;51.194;6.642;2022-07-31T09:37:14;28.10;96.60
28969;DHT22;16076;51.194;6.642;2022-07-31T09:39:40;28.00;97.10
28969;DHT22;16076;51.194;6.642;2022-07-31T09:42:07;27.90;97.00
28969;DHT22;16076;51.194;6.642;2022-07-31T09:44:45;27.50;96.70
28969;DHT22;16076;51.194;6.642;2022-07-31T09:47:22;27.30;97.30
28969;DHT22;16076;51.194;6.642;2022-07-31T09:49:59;27.20;97.70
28969;DHT22;16076;51.194;6.642;2022-07-31T09:52:27;27.20;97.70
28969;DHT22;16076;51.194;6.642;2022-07-31T09:55:12;27.30;97.60
28969;DHT22;16076;51.194;6.642;2022-07-31T09:57:56;27.50;97.60
28969;DHT22;16076;51.194;6.642;2022-07-31T10:00:24;27.60;97.20
28969;DHT22;16076;51.194;6.642;2022-07-31T10:02:53;27.90;97.10
28969;DHT22;16076;51.194;6.642;2022-07-31T10:05:26;27.90;96.80
28969;DHT22;16076;51.194;6.642;2022-07-31T10:07:55;27.70;97.20
28969;DHT22;16076;51.194;6.642;2022-07-31T10:10:22;27.80;97.10
28969;DHT22;16076;51.194;6.642;2022-07-31T10:12:50;27.90;97.70
28969;DHT22;16076;51.194;6.642;2022-07-31T10:15:18;28.10;97.30
28969;DHT22;16076;51.194;6.642;2022-07-31T10:17:48;28.40;97.00
28969;DHT22;16076;51.194;6.642;2022-07-31T10:20:22;28.60;96.40
28969;DHT22;16076;51.194;6.642;2022-07-31T10:22:53;28.90;95.60
28969;DHT22;16076;51.194;6.642;2022-07-31T10:25:21;29.10;95.20
28969;DHT22;16076;51.194;6.642;2022-07-31T10:27:50;29.10;94.70
28969;DHT22;16076;51.194;6.642;2022-07-31T10:30:17;29.20;94.50
28969;DHT22;16076;51.194;6.642;2022-07-31T10:32:43;29.40;94.10
28969;DHT22;16076;51.194;6.642;2022-07-31T10:35:09;29.60;94.60
28969;DHT22;16076;51.194;6.642;2022-07-31T10:40:50;29.90;93.10
28969;DHT22;16076;51.194;6.642;2022-07-31T10:43:20;30.20;93.20
28969;DHT22;16076;51.194;6.642;2022-07-31T10:45:50;30.50;92.20
28969;DHT22;16076;51.194;6.642;2022-07-31T10:48:22;30.50;92.60
28969;DHT22;16076;51.194;6.642;2022-07-31T10:51:08;30.50;92.00
28969;DHT22;16076;51.194;6.642;2022-07-31T10:53:37;30.50;92.10
28969;DHT22;16076;51.194;6.642;2022-07-31T10:56:07;30.60;92.10
28969;DHT22;16076;51.194;6.642;2022-07-31T10:58:54;30.60;91.90
28969;DHT22;16076;51.194;6.642;2022-07-31T11:01:20;30.60;90.90
28969;DHT22;16076;51.194;6.642;2022-07-31T11:03:51;30.50;90.90
28969;DHT22;16076;51.194;6.642;2022-07-31T11:06:17;30.30;90.10
28969;DHT22;16076;51.194;6.642;2022-07-31T11:08:48;30.00;90.80
28969;DHT22;16076;51.194;6.642;2022-07-31T11:11:17;29.80;91.90
28969;DHT22;16076;51.194;6.642;2022-07-31T11:13:48;29.80;91.70
28969;DHT22;16076;51.194;6.642;2022-07-31T11:16:18;29.90;91.70
28969;DHT22;16076;51.194;6.642;2022-07-31T11:18:54;29.70;91.90
28969;DHT22;16076;51.194;6.642;2022-07-31T11:21:38;29.70;91.20
28969;DHT22;16076;51.194;6.642;2022-07-31T11:24:17;29.90;90.50
28969;DHT22;16076;51.194;6.642;2022-07-31T11:26:55;30.00;90.60
28969;DHT22;16076;51.194;6.642;2022-07-31T11:29:30;30.10;90.20
28969;DHT22;16076;51.194;6.642;2022-07-31T11:32:13;30.20;90.00
28969;DHT22;16076;51.194;6.642;2022-07-31T11:34:47;30.20;90.10
28969;DHT22;16076;51.194;6.642;2022-07-31T11:37:16;30.30;90.00
28969;DHT22;16076;51.194;6.642;2022-07-31T11:39:42;30.60;88.80
28969;DHT22;16076;51.194;6.642;2022-07-31T11:42:10;30.70;88.70
28969;DHT22;16076;51.194;6.642;2022-07-31T11:44:36;31.00;87.60
28969;DHT22;16076;51.194;6.642;2022-07-31T11:47:02;31.10;86.90
28969;DHT22;16076;51.194;6.642;2022-07-31T11:49:28;31.00;86.50
28969;DHT22;16076;51.194;6.642;2022-07-31T11:52:08;30.80;87.40
28969;DHT22;16076;51.194;6.642;2022-07-31T11:54:37;30.70;86.80
28969;DHT22;16076;51.194;6.642;2022-07-31T11:57:03;30.70;86.70
28969;DHT22;16076;51.194;6.642;2022-07-31T11:59:38;30.70;85.40
28969;DHT22;16076;51.194;6.642;2022-07-31T12:02:11;30.70;85.50
28969;DHT22;16076;51.194;6.642;2022-07-31T12:04:38;30.80;85.20
28969;DHT22;16076;51.194;6.642;2022-07-31T12:07:06;30.80;84.40
28969;DHT22;16076;51.194;6.642;2022-07-31T12:09:33;30.70;85.30
28969;DHT22;16076;51.194;6.642;2022-07-31T12:11:59;30.70;86.60
28969;DHT22;16076;51.194;6.642;2022-07-31T12:16:57;31.10;84.80
28969;DHT22;16076;51.194;6.642;2022-07-31T12:19:34;31.10;85.20
28969;DHT22;16076;51.194;6.642;2022-07-31T12:22:16;31.10;84.90
28969;DHT22;16076;51.194;6.642;2022-07-31T12:24:43;31.20;85.00
28969;DHT22;16076;51.194;6.642;2022-07-31T12:27:16;31.60;84.90
28969;DHT22;16076;51.194;6.642;2022-07-31T12:29:42;31.70;83.20
28969;DHT22;16076;51.194;6.642;2022-07-31T12:32:08;31.50;83.60
28969;DHT22;16076;51.194;6.642;2022-07-31T12:34:36;31.50;83.90
28969;DHT22;16076;51.194;6.642;2022-07-31T12:37:09;31.50;84.10
28969;DHT22;16076;51.194;6.642;2022-07-31T12:39:54;31.40;83.80
28969;DHT22;16076;51.194;6.642;2022-07-31T12:42:30;31.30;84.60
28969;DHT22;16076;51.194;6.642;2022-07-31T12:45:00;31.00;84.80
28969;DHT22;16076;51.194;6.642;2022-07-31T12:47:31;30.90;85.20
28969;DHT22;16076;51.194;6.642;2022-07-31T12:49:58;31.00;85.80
28969;DHT22;16076;51.194;6.642;2022-07-31T12:52:27;31.00;85.10
28969;DHT22;16076;51.194;6.642;2022-07-31T12:54:54;31.10;86.00
28969;DHT22;16076;51.194;6.642;2022-07-31T12:57:19;31.20;85.70
28969;DHT22;16076;51.194;6.642;2022-07-31T12:59:45;31.30;86.10
28969;DHT22;16076;51.194;6.642;2022-07-31T13:02:11;31.50;84.30
28969;DHT22;16076;51.194;6.642;2022-07-31T13:04:37;31.50;84.60
28969;DHT22;16076;51.194;6.642;2022-07-31T13:07:03;31.40;85.90
28969;DHT22;16076;51.194;6.642;2022-07-31T13:09:31;31.30;84.50
28969;DHT22;16076;51.194;6.642;2022-07-31T13:11:57;31.10;84.70
28969;DHT22;16076;51.194;6.642;2022-07-31T13:14:22;31.00;83.90
28969;DHT22;16076;51.194;6.642;2022-07-31T13:16:49;30.80;84.20
28969;DHT22;16076;51.194;6.642;2022-07-31T13:19:15;30.70;85.90
28969;DHT22;16076;51.194;6.642;2022-07-31T13:21:42;30.50;86.00
28969;DHT22;16076;51.194;6.642;2022-07-31T13:24:08;30.40;85.10
28969;DHT22;16076;51.194;6.642;2022-07-31T13:26:37;30.50;86.60
28969;DHT22;16076;51.194;6.642;2022-07-31T13:29:09;30.80;86.90
28969;DHT22;16076;51.194;6.642;2022-07-31T13:31:35;31.30;86.20
28969;DHT22;16076;51.194;6.642;2022-07-31T13:34:01;31.60;83.20
28969;DHT22;16076;51.194;6.642;2022-07-31T13:36:26;32.00;82.50
28969;DHT22;16076;51.194;6.642;2022-07-31T13:38:52;31.90;81.70
28969;DHT22;16076;51.194;6.642;2022-07-31T13:41:18;31.70;81.70
28969;DHT22;16076;51.194;6.642;2022-07-31T13:43:53;31.40;82.60
28969;DHT22;16076;51.194;6.642;2022-07-31T13:46:21;31.20;83.40
28969;DHT22;16076;51.194;6.642;2022-07-31T13:48:49;31.20;83.50
28969;DHT22;16076;51.194;6.642;2022-07-31T13:51:15;31.40;83.60
28969;DHT22;16076;51.194;6.642;2022-07-31T13:53:40;31.70;82.70
28969;DHT22;16076;51.194;6.642;2022-07-31T13:56:06;31.90;81.60
28969;DHT22;16076;51.194;6.642;2022-07-31T13:58:32;32.00;82.20
28969;DHT22;16076;51.194;6.642;2022-07-31T14:00:58;32.20;82.10
28969;DHT22;16076;51.194;6.642;2022-07-31T14:03:24;32.40;79.90
28969;DHT22;16076;51.194;6.642;2022-07-31T14:05:51;32.20;79.70
28969;DHT22;16076;51.194;6.642;2022-07-31T14:08:18;32.50;79.30
28969;DHT22;16076;51.194;6.642;2022-07-31T14:10:48;32.20;78.90
28969;DHT22;16076;51.194;6.642;2022-07-31T14:13:15;31.50;80.60
28969;DHT22;16076;51.194;6.642;2022-07-31T14:15:41;30.90;82.50
28969;DHT22;16076;51.194;6.642;2022-07-31T14:18:07;30.70;83.50
28969;DHT22;16076;51.194;6.642;2022-07-31T14:20:33;30.80;83.20
28969;DHT22;16076;51.194;6.642;2022-07-31T14:23:01;31.50;82.70
28969;DHT22;16076;51.194;6.642;2022-07-31T14:25:30;32.80;79.60
28969;DHT22;16076;51.194;6.642;2022-07-31T14:27:59;33.60;76.70
28969;DHT22;16076;51.194;6.642;2022-07-31T14:30:25;33.70;75.10
28969;DHT22;16076;51.194;6.642;2022-07-31T14:32:51;33.60;74.70
28969;DHT22;16076;51.194;6.642;2022-07-31T14:35:18;33.50;75.30
28969;DHT22;16076;51.194;6.642;2022-07-31T14:37:46;34.40;74.30
28969;DHT22;16076;51.194;6.642;2022-07-31T14:40:15;34.90;71.00
28969;DHT22;16076;51.194;6.642;2022-07-31T14:42:43;34.30;71.30
28969;DHT22;16076;51.194;6.642;2022-07-31T14:45:10;33.60;72.60
28969;DHT22;16076;51.194;6.642;2022-07-31T14:47:36;33.10;74.30
28969;DHT22;16076;51.194;6.642;2022-07-31T14:50:03;32.90;75.80
28969;DHT22;16076;51.194;6.642;2022-07-31T14:52:30;32.70;76.40
28969;DHT22;16076;51.194;6.642;2022-07-31T14:54:57;32.50;77.50
28969;DHT22;16076;51.194;6.642;2022-07-31T14:57:24;32.50;75.60
28969;DHT22;16076;51.194;6.642;2022-07-31T14:59:50;32.10;76.40
28969;DHT22;16076;51.194;6.642;2022-07-31T15:02:16;32.00;76.80
28969;DHT22;16076;51.194;6.642;2022-07-31T15:04:42;31.90;77.20
28969;DHT22;16076;51.194;6.642;2022-07-31T15:07:07;31.70;78.40
28969;DHT22;16076;51.194;6.642;2022-07-31T15:09:33;31.40;78.20
28969;DHT22;16076;51.194;6.642;2022-07-31T15:11:59;31.00;79.20
28969;DHT22;16076;51.194;6.642;2022-07-31T15:14:25;30.70;80.20
28969;DHT22;16076;51.194;6.642;2022-07-31T15:16:50;30.40;81.20
28969;DHT22;16076;51.194;6.642;2022-07-31T15:19:16;30.10;82.90
28969;DHT22;16076;51.194;6.642;2022-07-31T15:21:45;30.00;83.40
28969;DHT22;16076;51.194;6.642;2022-07-31T15:24:11;30.00;82.10
28969;DHT22;16076;51.194;6.642;2022-07-31T15:26:37;29.90;82.50
28969;DHT22;16076;51.194;6.642;2022-07-31T15:29:03;29.90;83.30
28969;DHT22;16076;51.194;6.642;2022-07-31T15:31:29;29.80;84.10
28969;DHT22;16076;51.194;6.642;2022-07-31T15:33:54;29.90;84.40
28969;DHT22;16076;51.194;6.642;2022-07-31T15:36:24;29.90;83.90
28969;DHT22;16076;51.194;6.642;2022-07-31T15:38:50;30.00;83.60
28969;DHT22;16076;51.194;6.642;2022-07-31T15:41:15;30.00;83.50
28969;DHT22;16076;51.194;6.642;2022-07-31T15:43:41;30.20;83.80
28969;DHT22;16076;51.194;6.642;2022-07-31T15:46:08;31.40;81.50